Chennai, India
Current Conditions -  °F | °C
As of 5:10 AM on Saturday 20 Dec 2014 (Local Time) from VOMM Reporting Station
Few Clouds Few Clouds  
Wind Chill: 22°   Ceiling: Unl
Heat Index: 22°   Visibility: 4mi
Dew Point: 20°   Wind: 2mph
Humidity: 88%   Direction: NA
Pressure: 29.91"   Gusts: NA
Location:  13.06°N, 80.25°E
Report Text: VOMM 200010Z VRB02KT 6000 FEW020 22/20 Q1013 BECMG 5000 HZ
Loading
Personal Weather Stations






























Interactive Weather Map New forecast layout! Learn more

10-Day Weather Forecast

Advertisements
Track Severe Weather on mobile